sensor_id;sensor_type;location;lat;lon;timestamp;pressure;altitude;pressure_sealevel;temperature;humidity
46955;BME280;32708;51.212;6.788;2022-12-18T00:01:32;102237.84;;;-2.93;100.00
46955;BME280;32708;51.212;6.788;2022-12-18T00:04:03;102239.69;;;-2.87;100.00
46955;BME280;32708;51.212;6.788;2022-12-18T00:06:32;102246.22;;;-2.96;100.00
46955;BME280;32708;51.212;6.788;2022-12-18T00:09:03;102248.53;;;-2.93;100.00
46955;BME280;32708;51.212;6.788;2022-12-18T00:11:31;102246.78;;;-3.00;100.00
46955;BME280;32708;51.212;6.788;2022-12-18T00:14:01;102256.22;;;-3.05;100.00
46955;BME280;32708;51.212;6.788;2022-12-18T00:16:29;102260.94;;;-3.07;100.00
46955;BME280;32708;51.212;6.788;2022-12-18T00:19:00;102257.78;;;-2.89;100.00
46955;BME280;32708;51.212;6.788;2022-12-18T00:21:30;102256.09;;;-2.96;100.00
46955;BME280;32708;51.212;6.788;2022-12-18T00:23:58;102253.53;;;-2.83;100.00
46955;BME280;32708;51.212;6.788;2022-12-18T00:26:32;102264.22;;;-2.83;100.00
46955;BME280;32708;51.212;6.788;2022-12-18T00:29:13;102256.13;;;-2.90;100.00
46955;BME280;32708;51.212;6.788;2022-12-18T00:31:41;102258.88;;;-2.83;100.00
46955;BME280;32708;51.212;6.788;2022-12-18T00:34:13;102263.13;;;-2.89;100.00
46955;BME280;32708;51.212;6.788;2022-12-18T00:36:40;102256.56;;;-2.86;100.00
46955;BME280;32708;51.212;6.788;2022-12-18T00:39:08;102257.31;;;-2.99;100.00
46955;BME280;32708;51.212;6.788;2022-12-18T00:41:34;102263.00;;;-3.02;100.00
46955;BME280;32708;51.212;6.788;2022-12-18T00:44:19;102261.81;;;-2.99;100.00
46955;BME280;32708;51.212;6.788;2022-12-18T00:46:49;102259.25;;;-3.08;100.00
46955;BME280;32708;51.212;6.788;2022-12-18T00:49:19;102255.59;;;-3.07;100.00
46955;BME280;32708;51.212;6.788;2022-12-18T00:51:49;102244.31;;;-3.23;100.00
46955;BME280;32708;51.212;6.788;2022-12-18T00:54:16;102250.53;;;-3.16;100.00
46955;BME280;32708;51.212;6.788;2022-12-18T00:56:42;102255.75;;;-3.29;100.00
46955;BME280;32708;51.212;6.788;2022-12-18T00:59:09;102257.81;;;-3.10;100.00
46955;BME280;32708;51.212;6.788;2022-12-18T01:01:35;102248.81;;;-3.24;100.00
46955;BME280;32708;51.212;6.788;2022-12-18T01:04:05;102254.44;;;-3.19;100.00
46955;BME280;32708;51.212;6.788;2022-12-18T01:06:32;102240.19;;;-3.26;100.00
46955;BME280;32708;51.212;6.788;2022-12-18T01:08:59;102245.91;;;-3.29;100.00
46955;BME280;32708;51.212;6.788;2022-12-18T01:11:25;102238.00;;;-3.37;100.00
46955;BME280;32708;51.212;6.788;2022-12-18T01:13:53;102245.00;;;-3.36;100.00
46955;BME280;32708;51.212;6.788;2022-12-18T01:16:22;102249.78;;;-3.32;100.00
46955;BME280;32708;51.212;6.788;2022-12-18T01:18:54;102253.28;;;-3.31;100.00
46955;BME280;32708;51.212;6.788;2022-12-18T01:21:22;102255.88;;;-3.38;100.00
46955;BME280;32708;51.212;6.788;2022-12-18T01:23:53;102255.59;;;-3.28;100.00
46955;BME280;32708;51.212;6.788;2022-12-18T01:26:20;102241.00;;;-3.25;100.00
46955;BME280;32708;51.212;6.788;2022-12-18T01:28:46;102252.13;;;-3.22;100.00
46955;BME280;32708;51.212;6.788;2022-12-18T01:31:26;102260.72;;;-3.26;100.00
46955;BME280;32708;51.212;6.788;2022-12-18T01:33:55;102252.03;;;-3.14;100.00
46955;BME280;32708;51.212;6.788;2022-12-18T01:36:27;102241.56;;;-3.09;100.00
46955;BME280;32708;51.212;6.788;2022-12-18T01:38:55;102244.38;;;-3.17;100.00
46955;BME280;32708;51.212;6.788;2022-12-18T01:41:28;102238.66;;;-3.14;100.00
46955;BME280;32708;51.212;6.788;2022-12-18T01:47:57;102237.72;;;-3.06;100.00
46955;BME280;32708;51.212;6.788;2022-12-18T01:50:33;102232.66;;;-3.16;100.00
46955;BME280;32708;51.212;6.788;2022-12-18T01:53:21;102238.28;;;-3.11;100.00
46955;BME280;32708;51.212;6.788;2022-12-18T01:55:56;102243.00;;;-3.13;100.00
46955;BME280;32708;51.212;6.788;2022-12-18T01:58:39;102246.47;;;-3.12;100.00
46955;BME280;32708;51.212;6.788;2022-12-18T02:01:08;102253.03;;;-3.15;100.00
46955;BME280;32708;51.212;6.788;2022-12-18T02:03:36;102252.66;;;-3.12;100.00
46955;BME280;32708;51.212;6.788;2022-12-18T02:06:27;102251.31;;;-3.22;100.00
46955;BME280;32708;51.212;6.788;2022-12-18T02:11:59;102245.38;;;-3.39;100.00
46955;BME280;32708;51.212;6.788;2022-12-18T02:15:07;102239.78;;;-3.44;100.00
46955;BME280;32708;51.212;6.788;2022-12-18T02:18:08;102248.13;;;-3.33;100.00
46955;BME280;32708;51.212;6.788;2022-12-18T02:20:48;102251.06;;;-3.27;100.00
46955;BME280;32708;51.212;6.788;2022-12-18T02:24:11;102242.41;;;-3.29;100.00
46955;BME280;32708;51.212;6.788;2022-12-18T02:26:49;102240.94;;;-3.32;100.00
46955;BME280;32708;51.212;6.788;2022-12-18T02:29:33;102232.66;;;-3.37;100.00
46955;BME280;32708;51.212;6.788;2022-12-18T02:32:10;102232.31;;;-3.34;100.00
46955;BME280;32708;51.212;6.788;2022-12-18T02:34:40;102230.47;;;-3.34;100.00
46955;BME280;32708;51.212;6.788;2022-12-18T02:37:18;102230.31;;;-3.25;100.00
46955;BME280;32708;51.212;6.788;2022-12-18T02:39:49;102220.06;;;-3.22;100.00
46955;BME280;32708;51.212;6.788;2022-12-18T02:42:19;102217.03;;;-3.19;100.00
46955;BME280;32708;51.212;6.788;2022-12-18T02:44:49;102217.34;;;-3.07;100.00
46955;BME280;32708;51.212;6.788;2022-12-18T02:47:27;102221.09;;;-3.01;100.00
46955;BME280;32708;51.212;6.788;2022-12-18T02:50:10;102224.16;;;-3.05;100.00
46955;BME280;32708;51.212;6.788;2022-12-18T02:55:36;102237.44;;;-3.11;100.00
46955;BME280;32708;51.212;6.788;2022-12-18T02:58:26;102234.59;;;-3.10;100.00
46955;BME280;32708;51.212;6.788;2022-12-18T03:04:19;102234.59;;;-3.10;100.00
46955;BME280;32708;51.212;6.788;2022-12-18T03:06:56;102224.50;;;-3.14;100.00
46955;BME280;32708;51.212;6.788;2022-12-18T03:09:34;102219.44;;;-3.24;100.00
46955;BME280;32708;51.212;6.788;2022-12-18T03:12:24;102216.56;;;-3.22;100.00
46955;BME280;32708;51.212;6.788;2022-12-18T03:15:13;102217.88;;;-3.18;100.00
46955;BME280;32708;51.212;6.788;2022-12-18T03:17:56;102221.34;;;-3.18;100.00
46955;BME280;32708;51.212;6.788;2022-12-18T03:20:31;102213.28;;;-3.24;100.00
46955;BME280;32708;51.212;6.788;2022-12-18T03:23:09;102211.44;;;-3.24;100.00
46955;BME280;32708;51.212;6.788;2022-12-18T03:25:42;102221.84;;;-3.08;100.00
46955;BME280;32708;51.212;6.788;2022-12-18T03:28:15;102216.06;;;-3.11;100.00
46955;BME280;32708;51.212;6.788;2022-12-18T03:30:56;102202.47;;;-3.16;100.00
46955;BME280;32708;51.212;6.788;2022-12-18T03:33:59;102206.22;;;-3.11;100.00
46955;BME280;32708;51.212;6.788;2022-12-18T03:36:35;102208.97;;;-3.25;100.00
46955;BME280;32708;51.212;6.788;2022-12-18T03:39:02;102213.34;;;-3.18;100.00
46955;BME280;32708;51.212;6.788;2022-12-18T03:41:55;102213.22;;;-3.10;100.00
46955;BME280;32708;51.212;6.788;2022-12-18T03:47:42;102200.59;;;-2.94;100.00
46955;BME280;32708;51.212;6.788;2022-12-18T03:50:37;102200.41;;;-2.93;100.00
46955;BME280;32708;51.212;6.788;2022-12-18T03:53:23;102200.41;;;-2.93;100.00
46955;BME280;32708;51.212;6.788;2022-12-18T03:55:53;102196.31;;;-2.89;100.00
46955;BME280;32708;51.212;6.788;2022-12-18T03:58:25;102194.88;;;-2.91;100.00
46955;BME280;32708;51.212;6.788;2022-12-18T04:01:05;102187.38;;;-3.02;100.00
46955;BME280;32708;51.212;6.788;2022-12-18T04:03:36;102187.97;;;-3.07;100.00
46955;BME280;32708;51.212;6.788;2022-12-18T04:06:08;102194.31;;;-3.08;100.00
46955;BME280;32708;51.212;6.788;2022-12-18T04:08:39;102188.00;;;-3.00;100.00
46955;BME280;32708;51.212;6.788;2022-12-18T04:11:07;102184.69;;;-3.02;100.00
46955;BME280;32708;51.212;6.788;2022-12-18T04:13:38;102176.25;;;-3.06;100.00
46955;BME280;32708;51.212;6.788;2022-12-18T04:16:14;102174.91;;;-3.17;100.00
46955;BME280;32708;51.212;6.788;2022-12-18T04:18:42;102180.41;;;-3.25;100.00
46955;BME280;32708;51.212;6.788;2022-12-18T04:21:10;102184.78;;;-3.17;100.00
46955;BME280;32708;51.212;6.788;2022-12-18T04:23:37;102179.06;;;-3.14;100.00
46955;BME280;32708;51.212;6.788;2022-12-18T04:26:07;102184.59;;;-3.16;100.00
46955;BME280;32708;51.212;6.788;2022-12-18T04:28:52;102162.66;;;-3.33;100.00
46955;BME280;32708;51.212;6.788;2022-12-18T04:31:19;102184.28;;;-3.27;100.00
46955;BME280;32708;51.212;6.788;2022-12-18T04:33:47;102185.94;;;-3.26;100.00
46955;BME280;32708;51.212;6.788;2022-12-18T04:36:14;102186.00;;;-3.20;100.00
46955;BME280;32708;51.212;6.788;2022-12-18T04:38:42;102177.53;;;-3.23;100.00
46955;BME280;32708;51.212;6.788;2022-12-18T04:41:13;102174.81;;;-3.30;100.00
46955;BME280;32708;51.212;6.788;2022-12-18T04:43:40;102187.03;;;-3.42;100.00
46955;BME280;32708;51.212;6.788;2022-12-18T04:46:08;102171.31;;;-3.52;100.00
46955;BME280;32708;51.212;6.788;2022-12-18T04:48:36;102186.31;;;-3.51;100.00
46955;BME280;32708;51.212;6.788;2022-12-18T04:51:05;102193.88;;;-3.54;100.00
46955;BME280;32708;51.212;6.788;2022-12-18T04:53:31;102186.97;;;-3.49;100.00
46955;BME280;32708;51.212;6.788;2022-12-18T04:56:11;102180.59;;;-3.48;100.00
46955;BME280;32708;51.212;6.788;2022-12-18T04:58:42;102177.13;;;-3.48;100.00
46955;BME280;32708;51.212;6.788;2022-12-18T05:01:10;102170.13;;;-3.49;100.00
46955;BME280;32708;51.212;6.788;2022-12-18T05:03:37;102162.94;;;-3.49;100.00
46955;BME280;32708;51.212;6.788;2022-12-18T05:06:06;102160.28;;;-3.49;100.00
46955;BME280;32708;51.212;6.788;2022-12-18T05:08:35;102157.28;;;-3.61;100.00
46955;BME280;32708;51.212;6.788;2022-12-18T05:13:31;102159.31;;;-3.63;100.00
46955;BME280;32708;51.212;6.788;2022-12-18T05:15:57;102169.72;;;-3.46;100.00
46955;BME280;32708;51.212;6.788;2022-12-18T05:18:28;102168.28;;;-3.49;100.00
46955;BME280;32708;51.212;6.788;2022-12-18T05:20:59;102170.88;;;-3.55;100.00
46955;BME280;32708;51.212;6.788;2022-12-18T05:23:27;102163.09;;;-3.50;100.00
46955;BME280;32708;51.212;6.788;2022-12-18T05:26:00;102162.53;;;-3.46;100.00
46955;BME280;32708;51.212;6.788;2022-12-18T05:28:29;102155.41;;;-3.60;100.00
46955;BME280;32708;51.212;6.788;2022-12-18T05:31:01;102163.91;;;-3.56;100.00
46955;BME280;32708;51.212;6.788;2022-12-18T05:33:32;102165.16;;;-3.52;100.00
46955;BME280;32708;51.212;6.788;2022-12-18T05:36:05;102168.56;;;-3.58;100.00
46955;BME280;32708;51.212;6.788;2022-12-18T05:38:36;102181.56;;;-3.55;100.00
46955;BME280;32708;51.212;6.788;2022-12-18T05:41:04;102176.41;;;-3.57;100.00
46955;BME280;32708;51.212;6.788;2022-12-18T05:43:35;102177.66;;;-3.53;100.00
46955;BME280;32708;51.212;6.788;2022-12-18T05:46:14;102180.66;;;-3.63;100.00
46955;BME280;32708;51.212;6.788;2022-12-18T05:48:49;102175.88;;;-3.67;100.00
46955;BME280;32708;51.212;6.788;2022-12-18T05:51:20;102189.38;;;-3.54;100.00
46955;BME280;32708;51.212;6.788;2022-12-18T05:53:49;102206.00;;;-3.73;100.00
46955;BME280;32708;51.212;6.788;2022-12-18T05:56:20;102201.81;;;-3.61;100.00
46955;BME280;32708;51.212;6.788;2022-12-18T05:58:52;102194.50;;;-3.74;100.00
46955;BME280;32708;51.212;6.788;2022-12-18T06:01:24;102202.06;;;-3.77;100.00
46955;BME280;32708;51.212;6.788;2022-12-18T06:03:51;102207.00;;;-3.74;100.00
46955;BME280;32708;51.212;6.788;2022-12-18T06:06:24;102219.63;;;-3.68;100.00
46955;BME280;32708;51.212;6.788;2022-12-18T06:08:52;102217.56;;;-3.66;100.00
46955;BME280;32708;51.212;6.788;2022-12-18T06:11:23;102229.59;;;-3.77;100.00
46955;BME280;32708;51.212;6.788;2022-12-18T06:13:54;102233.50;;;-3.73;100.00
46955;BME280;32708;51.212;6.788;2022-12-18T06:16:22;102231.22;;;-3.76;100.00
46955;BME280;32708;51.212;6.788;2022-12-18T06:18:49;102224.25;;;-3.77;100.00
46955;BME280;32708;51.212;6.788;2022-12-18T06:21:16;102226.84;;;-3.83;100.00
46955;BME280;32708;51.212;6.788;2022-12-18T06:23:42;102228.56;;;-3.76;100.00
46955;BME280;32708;51.212;6.788;2022-12-18T06:26:12;102229.00;;;-3.72;100.00
46955;BME280;32708;51.212;6.788;2022-12-18T06:28:41;102226.53;;;-3.74;100.00
46955;BME280;32708;51.212;6.788;2022-12-18T06:31:08;102230.00;;;-3.73;100.00
46955;BME280;32708;51.212;6.788;2022-12-18T06:33:35;102224.19;;;-3.62;100.00
46955;BME280;32708;51.212;6.788;2022-12-18T06:36:20;102209.50;;;-3.73;100.00
46955;BME280;32708;51.212;6.788;2022-12-18T06:38:47;102199.00;;;-3.74;100.00
46955;BME280;32708;51.212;6.788;2022-12-18T06:41:17;102203.66;;;-3.62;100.00
46955;BME280;32708;51.212;6.788;2022-12-18T06:43:44;102202.31;;;-3.72;100.00
46955;BME280;32708;51.212;6.788;2022-12-18T06:46:12;102202.84;;;-3.62;100.00
46955;BME280;32708;51.212;6.788;2022-12-18T06:48:39;102203.47;;;-3.60;100.00
46955;BME280;32708;51.212;6.788;2022-12-18T06:51:05;102172.94;;;-3.72;100.00
46955;BME280;32708;51.212;6.788;2022-12-18T06:53:33;102186.16;;;-3.49;100.00
46955;BME280;32708;51.212;6.788;2022-12-18T06:56:04;102178.69;;;-3.54;100.00
46955;BME280;32708;51.212;6.788;2022-12-18T06:58:31;102165.78;;;-3.50;100.00
46955;BME280;32708;51.212;6.788;2022-12-18T07:01:08;102178.81;;;-3.41;100.00
46955;BME280;32708;51.212;6.788;2022-12-18T07:03:35;102185.69;;;-3.53;100.00
46955;BME280;32708;51.212;6.788;2022-12-18T07:06:02;102182.66;;;-3.50;100.00
46955;BME280;32708;51.212;6.788;2022-12-18T07:08:31;102175.34;;;-3.41;100.00
46955;BME280;32708;51.212;6.788;2022-12-18T07:10:57;102181.75;;;-3.36;100.00
46955;BME280;32708;51.212;6.788;2022-12-18T07:13:24;102178.22;;;-3.36;100.00
46955;BME280;32708;51.212;6.788;2022-12-18T07:15:50;102186.50;;;-3.31;100.00
46955;BME280;32708;51.212;6.788;2022-12-18T07:18:16;102168.44;;;-3.29;100.00
46955;BME280;32708;51.212;6.788;2022-12-18T07:20:42;102171.91;;;-3.35;100.00
46955;BME280;32708;51.212;6.788;2022-12-18T07:23:10;102179.09;;;-3.36;100.00
46955;BME280;32708;51.212;6.788;2022-12-18T07:25:37;102172.94;;;-3.29;100.00
46955;BME280;32708;51.212;6.788;2022-12-18T07:28:04;102179.38;;;-3.24;100.00
46955;BME280;32708;51.212;6.788;2022-12-18T07:30:30;102181.78;;;-3.29;100.00
46955;BME280;32708;51.212;6.788;2022-12-18T07:32:58;102173.53;;;-3.13;100.00
46955;BME280;32708;51.212;6.788;2022-12-18T07:35:24;102162.78;;;-3.19;100.00
46955;BME280;32708;51.212;6.788;2022-12-18T07:37:51;102141.97;;;-3.24;100.00
46955;BME280;32708;51.212;6.788;2022-12-18T07:40:18;102159.50;;;-3.15;100.00
46955;BME280;32708;51.212;6.788;2022-12-18T07:42:45;102151.69;;;-3.16;100.00
46955;BME280;32708;51.212;6.788;2022-12-18T07:45:11;102145.84;;;-3.05;100.00
46955;BME280;32708;51.212;6.788;2022-12-18T07:47:40;102154.69;;;-3.05;100.00
46955;BME280;32708;51.212;6.788;2022-12-18T07:50:12;102129.84;;;-3.26;100.00
46955;BME280;32708;51.212;6.788;2022-12-18T07:52:42;102163.94;;;-3.00;100.00
46955;BME280;32708;51.212;6.788;2022-12-18T07:55:23;102144.97;;;-3.12;100.00
46955;BME280;32708;51.212;6.788;2022-12-18T07:57:53;102169.88;;;-3.05;100.00
46955;BME280;32708;51.212;6.788;2022-12-18T08:00:20;102113.50;;;-3.38;100.00
46955;BME280;32708;51.212;6.788;2022-12-18T08:02:46;102153.50;;;-3.23;100.00
46955;BME280;32708;51.212;6.788;2022-12-18T08:05:13;102120.19;;;-3.27;100.00
46955;BME280;32708;51.212;6.788;2022-12-18T08:07:40;102140.59;;;-3.20;100.00
46955;BME280;32708;51.212;6.788;2022-12-18T08:10:07;102107.47;;;-3.25;100.00
46955;BME280;32708;51.212;6.788;2022-12-18T08:12:34;102122.91;;;-3.21;100.00
46955;BME280;32708;51.212;6.788;2022-12-18T08:15:01;102134.47;;;-3.14;100.00
46955;BME280;32708;51.212;6.788;2022-12-18T08:17:28;102125.09;;;-3.03;100.00
46955;BME280;32708;51.212;6.788;2022-12-18T08:19:57;102110.13;;;-2.97;100.00
46955;BME280;32708;51.212;6.788;2022-12-18T08:22:23;102115.72;;;-2.92;100.00
46955;BME280;32708;51.212;6.788;2022-12-18T08:24:52;102125.59;;;-2.86;100.00
46955;BME280;32708;51.212;6.788;2022-12-18T08:27:21;102101.44;;;-3.06;100.00
46955;BME280;32708;51.212;6.788;2022-12-18T08:29:47;102086.06;;;-2.97;100.00
46955;BME280;32708;51.212;6.788;2022-12-18T08:32:14;102091.09;;;-2.81;100.00
46955;BME280;32708;51.212;6.788;2022-12-18T08:34:41;102096.25;;;-2.80;100.00
46955;BME280;32708;51.212;6.788;2022-12-18T08:37:07;102087.84;;;-2.77;100.00
46955;BME280;32708;51.212;6.788;2022-12-18T08:39:35;102095.91;;;-2.70;100.00
46955;BME280;32708;51.212;6.788;2022-12-18T08:42:01;102106.59;;;-2.70;100.00
46955;BME280;32708;51.212;6.788;2022-12-18T08:44:46;102103.78;;;-2.55;100.00
46955;BME280;32708;51.212;6.788;2022-12-18T08:47:12;102091.28;;;-2.48;100.00
46955;BME280;32708;51.212;6.788;2022-12-18T08:49:39;102096.00;;;-2.43;100.00
46955;BME280;32708;51.212;6.788;2022-12-18T08:52:08;102094.19;;;-2.36;100.00
46955;BME280;32708;51.212;6.788;2022-12-18T08:54:40;102090.09;;;-2.32;100.00
46955;BME280;32708;51.212;6.788;2022-12-18T08:57:09;102096.13;;;-2.17;100.00
46955;BME280;32708;51.212;6.788;2022-12-18T08:59:36;102093.19;;;-2.22;100.00
46955;BME280;32708;51.212;6.788;2022-12-18T09:02:02;102086.28;;;-2.03;100.00
46955;BME280;32708;51.212;6.788;2022-12-18T09:04:28;102095.31;;;-2.11;100.00
46955;BME280;32708;51.212;6.788;2022-12-18T09:06:54;102084.41;;;-2.03;100.00
46955;BME280;32708;51.212;6.788;2022-12-18T09:09:21;102069.38;;;-2.10;100.00
46955;BME280;32708;51.212;6.788;2022-12-18T09:11:49;102081.53;;;-2.01;100.00
46955;BME280;32708;51.212;6.788;2022-12-18T09:14:15;102066.91;;;-2.12;100.00
46955;BME280;32708;51.212;6.788;2022-12-18T09:16:42;102079.91;;;-1.96;100.00
46955;BME280;32708;51.212;6.788;2022-12-18T09:19:09;102084.25;;;-1.88;100.00
46955;BME280;32708;51.212;6.788;2022-12-18T09:21:41;102073.31;;;-1.86;100.00
46955;BME280;32708;51.212;6.788;2022-12-18T09:24:16;102081.78;;;-1.89;100.00
46955;BME280;32708;51.212;6.788;2022-12-18T09:26:46;102087.53;;;-1.79;100.00
46955;BME280;32708;51.212;6.788;2022-12-18T09:29:15;102094.16;;;-1.69;100.00
46955;BME280;32708;51.212;6.788;2022-12-18T09:31:41;102076.66;;;-1.71;100.00
46955;BME280;32708;51.212;6.788;2022-12-18T09:34:08;102081.00;;;-1.57;100.00
46955;BME280;32708;51.212;6.788;2022-12-18T09:36:37;102066.56;;;-1.62;100.00
46955;BME280;32708;51.212;6.788;2022-12-18T09:39:04;102069.03;;;-1.74;100.00
46955;BME280;32708;51.212;6.788;2022-12-18T09:41:57;102056.66;;;-1.69;100.00
46955;BME280;32708;51.212;6.788;2022-12-18T09:44:30;102055.44;;;-1.40;100.00
46955;BME280;32708;51.212;6.788;2022-12-18T09:47:15;102038.75;;;-1.42;100.00
46955;BME280;32708;51.212;6.788;2022-12-18T09:49:47;102053.78;;;-1.21;100.00
46955;BME280;32708;51.212;6.788;2022-12-18T09:52:37;102051.94;;;-1.40;100.00
46955;BME280;32708;51.212;6.788;2022-12-18T09:55:30;102047.78;;;-1.16;100.00
46955;BME280;32708;51.212;6.788;2022-12-18T09:58:24;102035.19;;;-1.22;100.00
46955;BME280;32708;51.212;6.788;2022-12-18T10:00:54;102019.31;;;-1.04;100.00
46955;BME280;32708;51.212;6.788;2022-12-18T10:03:21;102021.94;;;-0.91;100.00
46955;BME280;32708;51.212;6.788;2022-12-18T10:06:18;102022.19;;;-1.05;100.00
46955;BME280;32708;51.212;6.788;2022-12-18T10:09:27;102019.66;;;-0.87;100.00
46955;BME280;32708;51.212;6.788;2022-12-18T10:12:54;102011.81;;;-0.89;100.00
46955;BME280;32708;51.212;6.788;2022-12-18T10:28:10;102005.59;;;-0.76;100.00
46955;BME280;32708;51.212;6.788;2022-12-18T10:30:40;102007.81;;;-0.66;100.00
46955;BME280;32708;51.212;6.788;2022-12-18T10:33:16;101990.19;;;-0.49;100.00
46955;BME280;32708;51.212;6.788;2022-12-18T10:35:53;101993.75;;;-0.55;100.00
46955;BME280;32708;51.212;6.788;2022-12-18T10:38:29;101987.81;;;-0.32;100.00
46955;BME280;32708;51.212;6.788;2022-12-18T10:44:22;101963.16;;;-0.47;100.00
46955;BME280;32708;51.212;6.788;2022-12-18T10:47:02;101978.66;;;-0.18;100.00
46955;BME280;32708;51.212;6.788;2022-12-18T10:49:33;101974.19;;;-0.31;100.00
46955;BME280;32708;51.212;6.788;2022-12-18T10:52:22;101961.94;;;-0.20;100.00
46955;BME280;32708;51.212;6.788;2022-12-18T10:54:59;101969.88;;;0.00;100.00
46955;BME280;32708;51.212;6.788;2022-12-18T10:57:39;101958.97;;;0.13;100.00
46955;BME280;32708;51.212;6.788;2022-12-18T11:00:29;101944.75;;;0.13;100.00
46955;BME280;32708;51.212;6.788;2022-12-18T11:02:58;101940.53;;;0.42;100.00
46955;BME280;32708;51.212;6.788;2022-12-18T11:05:33;101934.88;;;0.32;100.00
46955;BME280;32708;51.212;6.788;2022-12-18T11:08:01;101928.69;;;0.31;100.00
46955;BME280;32708;51.212;6.788;2022-12-18T11:10:36;101922.47;;;0.31;100.00
46955;BME280;32708;51.212;6.788;2022-12-18T11:13:23;101946.06;;;0.47;100.00
46955;BME280;32708;51.212;6.788;2022-12-18T11:15:51;101951.31;;;0.17;100.00
46955;BME280;32708;51.212;6.788;2022-12-18T11:18:32;101916.97;;;0.44;100.00
46955;BME280;32708;51.212;6.788;2022-12-18T11:21:08;101919.34;;;0.34;100.00
46955;BME280;32708;51.212;6.788;2022-12-18T11:23:51;101930.16;;;0.27;100.00
46955;BME280;32708;51.212;6.788;2022-12-18T11:26:20;101919.69;;;0.19;100.00
46955;BME280;32708;51.212;6.788;2022-12-18T11:29:16;101908.78;;;0.14;100.00
46955;BME280;32708;51.212;6.788;2022-12-18T11:31:44;101915.13;;;0.19;100.00
46955;BME280;32708;51.212;6.788;2022-12-18T11:34:29;101898.25;;;0.37;100.00
46955;BME280;32708;51.212;6.788;2022-12-18T11:37:00;101909.56;;;0.39;100.00
46955;BME280;32708;51.212;6.788;2022-12-18T11:40:03;101898.91;;;0.51;100.00
46955;BME280;32708;51.212;6.788;2022-12-18T11:43:08;101904.56;;;0.43;100.00
46955;BME280;32708;51.212;6.788;2022-12-18T11:46:02;101859.66;;;0.32;100.00
46955;BME280;32708;51.212;6.788;2022-12-18T11:48:39;101884.94;;;0.42;100.00
46955;BME280;32708;51.212;6.788;2022-12-18T11:51:41;101899.66;;;0.40;100.00
46955;BME280;32708;51.212;6.788;2022-12-18T11:54:32;101884.13;;;0.23;100.00
46955;BME280;32708;51.212;6.788;2022-12-18T11:57:49;101893.22;;;0.22;100.00
46955;BME280;32708;51.212;6.788;2022-12-18T12:00:26;101886.75;;;0.05;100.00
46955;BME280;32708;51.212;6.788;2022-12-18T12:06:13;101870.16;;;0.15;100.00
46955;BME280;32708;51.212;6.788;2022-12-18T12:12:36;101888.38;;;0.49;100.00
46955;BME280;32708;51.212;6.788;2022-12-18T12:15:55;101875.59;;;0.26;100.00
46955;BME280;32708;51.212;6.788;2022-12-18T12:39:34;101867.59;;;0.02;100.00
46955;BME280;32708;51.212;6.788;2022-12-18T12:42:33;101842.38;;;0.03;100.00
46955;BME280;32708;51.212;6.788;2022-12-18T12:46:05;101850.31;;;0.16;100.00
46955;BME280;32708;51.212;6.788;2022-12-18T12:51:19;101864.34;;;0.18;100.00
46955;BME280;32708;51.212;6.788;2022-12-18T12:53:56;101849.75;;;0.07;100.00
46955;BME280;32708;51.212;6.788;2022-12-18T12:56:44;101864.94;;;0.20;100.00
46955;BME280;32708;51.212;6.788;2022-12-18T13:05:45;101872.34;;;-0.01;100.00
46955;BME280;32708;51.212;6.788;2022-12-18T13:08:57;101853.53;;;-0.19;100.00
46955;BME280;32708;51.212;6.788;2022-12-18T13:11:46;101855.75;;;0.09;100.00
46955;BME280;32708;51.212;6.788;2022-12-18T13:17:24;101851.94;;;-0.26;100.00
46955;BME280;32708;51.212;6.788;2022-12-18T13:20:10;101836.91;;;-0.28;100.00
46955;BME280;32708;51.212;6.788;2022-12-18T13:22:48;101847.28;;;-0.13;100.00
46955;BME280;32708;51.212;6.788;2022-12-18T13:25:38;101840.88;;;-0.12;100.00
46955;BME280;32708;51.212;6.788;2022-12-18T13:28:14;101825.88;;;-0.19;100.00
46955;BME280;32708;51.212;6.788;2022-12-18T13:30:49;101832.88;;;-0.18;100.00
46955;BME280;32708;51.212;6.788;2022-12-18T13:38:35;101749.56;;;-0.30;100.00
46955;BME280;32708;51.212;6.788;2022-12-18T13:41:27;101794.59;;;-0.32;100.00
46955;BME280;32708;51.212;6.788;2022-12-18T13:44:12;101791.16;;;-0.14;100.00
46955;BME280;32708;51.212;6.788;2022-12-18T13:46:50;101828.63;;;-0.08;100.00
46955;BME280;32708;51.212;6.788;2022-12-18T13:49:43;101817.25;;;-0.03;100.00
46955;BME280;32708;51.212;6.788;2022-12-18T13:52:37;101778.81;;;-0.22;100.00
46955;BME280;32708;51.212;6.788;2022-12-18T13:55:17;101797.88;;;-0.05;100.00
46955;BME280;32708;51.212;6.788;2022-12-18T13:57:44;101792.09;;;-0.09;100.00
46955;BME280;32708;51.212;6.788;2022-12-18T14:02:56;101783.47;;;-0.11;100.00
46955;BME280;32708;51.212;6.788;2022-12-18T14:05:37;101795.19;;;-0.05;100.00
46955;BME280;32708;51.212;6.788;2022-12-18T14:08:15;101778.31;;;-0.12;100.00
46955;BME280;32708;51.212;6.788;2022-12-18T14:10:50;101796.66;;;-0.09;100.00
46955;BME280;32708;51.212;6.788;2022-12-18T14:13:34;101788.22;;;-0.13;100.00
46955;BME280;32708;51.212;6.788;2022-12-18T14:16:05;101778.84;;;-0.04;100.00
46955;BME280;32708;51.212;6.788;2022-12-18T14:18:49;101765.47;;;-0.29;100.00
46955;BME280;32708;51.212;6.788;2022-12-18T14:21:28;101783.47;;;-0.11;100.00
46955;BME280;32708;51.212;6.788;2022-12-18T14:24:19;101774.72;;;-0.24;100.00
46955;BME280;32708;51.212;6.788;2022-12-18T14:26:54;101767.72;;;-0.25;100.00
46955;BME280;32708;51.212;6.788;2022-12-18T14:29:43;101759.88;;;-0.09;100.00
46955;BME280;32708;51.212;6.788;2022-12-18T14:32:15;101762.56;;;-0.09;100.00
46955;BME280;32708;51.212;6.788;2022-12-18T14:34:52;101761.75;;;-0.09;100.00
46955;BME280;32708;51.212;6.788;2022-12-18T14:37:27;101726.94;;;-0.34;100.00
46955;BME280;32708;51.212;6.788;2022-12-18T14:40:04;101754.00;;;-0.17;100.00
46955;BME280;32708;51.212;6.788;2022-12-18T14:42:39;101757.44;;;-0.10;100.00